Terminal Aerodrome Forecast
Issued by NWS Shreveport, LA

Home | Current Version | Previous Version | Text Only | Print | Product List | Glossary On
Versions: 1 2 3 4 5 6 7 8 9 10 11 12 13 14
000
FTUS44 KSHV 231700
TAFTYR
TAF
KTYR 231728Z 2318/2418 23008KT P6SM FEW040
     FM240000 17005KT P6SM SKC
     FM241400 21007KT P6SM FEW015
     FM241600 20007KT P6SM SCT035=

USA.gov is the U.S. government's official web portal to all federal, state and local government web resources and services.